createdAt,value
2018-10-09T00:01:26.866Z,85.40
2018-10-09T00:03:56.176Z,85.30
2018-10-09T00:06:24.661Z,84.60
2018-10-09T00:08:53.562Z,84.10
2018-10-09T00:11:22.256Z,84.50
2018-10-09T00:13:50.917Z,85.10
2018-10-09T00:16:19.651Z,85.40
2018-10-09T00:18:48.323Z,85.80
2018-10-09T00:21:17.199Z,85.40
2018-10-09T00:23:46.134Z,86.20
2018-10-09T00:26:17.167Z,86.10
2018-10-09T00:28:45.718Z,85.30
2018-10-09T00:31:14.373Z,84.40
2018-10-09T00:33:43.060Z,84.40
2018-10-09T00:36:11.779Z,84.80
2018-10-09T00:38:40.433Z,84.40
2018-10-09T00:41:09.142Z,84.50
2018-10-09T00:43:38.038Z,85.10
2018-10-09T00:46:06.888Z,85.30
2018-10-09T00:48:35.799Z,85.40
2018-10-09T00:51:04.553Z,85.30
2018-10-09T00:53:33.373Z,85.70
2018-10-09T00:56:02.266Z,85.40
2018-10-09T00:58:30.986Z,85.30
2018-10-09T01:00:59.842Z,85.60
2018-10-09T01:03:28.523Z,85.00
2018-10-09T01:05:57.041Z,85.00
2018-10-09T01:08:25.938Z,85.60
2018-10-09T01:10:54.572Z,84.80
2018-10-09T01:13:23.076Z,84.40
2018-10-09T01:15:51.545Z,84.20
2018-10-09T01:18:20.232Z,84.30
2018-10-09T01:20:48.948Z,84.90
2018-10-09T01:23:17.605Z,85.20
2018-10-09T01:25:46.508Z,85.30
2018-10-09T01:28:15.405Z,84.60
2018-10-09T01:30:44.274Z,85.20
2018-10-09T01:33:12.557Z,86.30
2018-10-09T01:35:41.268Z,86.10
2018-10-09T01:38:10.117Z,86.10
2018-10-09T01:40:39.020Z,86.50
2018-10-09T01:43:07.643Z,86.40
2018-10-09T01:45:36.587Z,86.10
2018-10-09T01:48:05.245Z,86.40
2018-10-09T01:50:33.776Z,86.70
2018-10-09T01:53:02.708Z,86.60
2018-10-09T01:55:31.323Z,86.90
2018-10-09T01:58:00.324Z,87.00
2018-10-09T02:00:28.909Z,86.50
2018-10-09T02:02:57.572Z,86.70
2018-10-09T02:05:26.067Z,87.10
2018-10-09T02:07:54.547Z,87.20
2018-10-09T02:10:23.099Z,86.90
2018-10-09T02:12:51.945Z,87.20
2018-10-09T02:15:20.821Z,87.30
2018-10-09T02:17:49.788Z,86.90
2018-10-09T02:20:18.657Z,86.60
2018-10-09T02:22:47.539Z,86.90
2018-10-09T02:25:16.157Z,87.20
2018-10-09T02:27:44.669Z,86.10
2018-10-09T02:30:13.545Z,86.10
2018-10-09T02:32:42.447Z,86.20
2018-10-09T02:35:11.341Z,86.60
2018-10-09T02:37:39.969Z,86.60
2018-10-09T02:40:08.852Z,86.90
2018-10-09T02:42:37.361Z,86.90
2018-10-09T02:45:06.251Z,86.80
2018-10-09T02:47:34.726Z,86.30
2018-10-09T02:50:03.698Z,86.40
2018-10-09T02:52:32.268Z,86.30
2018-10-09T02:55:00.994Z,86.20
2018-10-09T02:57:29.793Z,86.20
2018-10-09T02:59:58.580Z,86.30
2018-10-09T03:02:27.361Z,86.00
2018-10-09T03:04:55.947Z,85.50
2018-10-09T03:07:24.874Z,84.50
2018-10-09T03:09:53.722Z,84.10
2018-10-09T03:12:22.211Z,84.80
2018-10-09T03:14:50.870Z,84.90
2018-10-09T03:17:19.575Z,84.70
2018-10-09T03:19:48.274Z,84.70
2018-10-09T03:22:16.928Z,85.20
2018-10-09T03:24:45.844Z,84.60
2018-10-09T03:27:14.556Z,84.10
2018-10-09T03:29:42.968Z,84.60
2018-10-09T03:32:11.471Z,84.90
2018-10-09T03:34:39.968Z,84.70
2018-10-09T03:37:08.637Z,85.30
2018-10-09T03:39:37.148Z,85.20
2018-10-09T03:42:06.436Z,85.90
2018-10-09T03:44:34.915Z,86.10
2018-10-09T03:47:03.605Z,86.20
2018-10-09T03:49:32.495Z,86.10
2018-10-09T03:52:01.224Z,86.40
2018-10-09T03:54:30.062Z,86.20
2018-10-09T03:56:58.654Z,86.70
2018-10-09T03:59:27.205Z,86.80
2018-10-09T04:01:56.128Z,86.50
2018-10-09T04:04:24.626Z,86.00
2018-10-09T04:06:53.274Z,86.60
2018-10-09T04:09:21.991Z,85.80
2018-10-09T04:11:50.669Z,85.70
2018-10-09T04:14:19.509Z,85.50
2018-10-09T04:16:48.226Z,86.10
2018-10-09T04:19:16.760Z,85.20
2018-10-09T04:21:45.600Z,85.00
2018-10-09T04:24:14.489Z,84.70
2018-10-09T04:26:42.982Z,84.70
2018-10-09T04:29:11.479Z,85.30
2018-10-09T04:31:40.164Z,85.40
2018-10-09T04:34:09.106Z,84.70
2018-10-09T04:36:37.874Z,84.70
2018-10-09T04:39:08.019Z,84.70
2018-10-09T04:41:36.866Z,84.50
2018-10-09T04:44:05.599Z,84.50
2018-10-09T04:46:34.096Z,85.00
2018-10-09T04:49:17.743Z,85.30
2018-10-09T04:51:46.423Z,85.30
2018-10-09T04:54:15.106Z,85.80
2018-10-09T04:56:43.795Z,86.10
2018-10-09T04:59:12.470Z,85.80
2018-10-09T05:01:42.689Z,85.30
2018-10-09T05:04:11.689Z,85.20
2018-10-09T05:06:45.609Z,85.10
2018-10-09T05:09:14.398Z,86.00
2018-10-09T05:11:43.273Z,85.80
2018-10-09T05:14:12.156Z,84.90
2018-10-09T05:16:40.858Z,85.20
2018-10-09T05:19:09.510Z,85.40
2018-10-09T05:21:47.275Z,85.80
2018-10-09T05:24:16.096Z,85.90
2018-10-09T05:26:45.078Z,86.30
2018-10-09T05:29:13.902Z,86.60
2018-10-09T05:32:00.270Z,86.90
2018-10-09T05:34:51.797Z,86.80
2018-10-09T05:37:24.220Z,87.50
2018-10-09T05:40:15.033Z,87.60
2018-10-09T05:43:16.669Z,87.30
2018-10-09T05:45:53.528Z,87.50
2018-10-09T05:48:31.164Z,87.80
2018-10-09T05:51:26.435Z,87.50
2018-10-09T05:53:58.820Z,87.20
2018-10-09T05:56:27.399Z,88.10
2018-10-09T05:58:56.122Z,87.90
2018-10-09T06:01:29.767Z,88.00
2018-10-09T06:03:58.789Z,87.90
2018-10-09T06:06:27.458Z,88.50
2018-10-09T06:08:56.189Z,88.30
2018-10-09T06:12:12.611Z,87.60
2018-10-09T06:14:41.949Z,87.60
2018-10-09T06:17:10.544Z,87.20
2018-10-09T06:19:39.453Z,87.30
2018-10-09T06:22:08.146Z,87.20
2018-10-09T06:24:36.996Z,87.50
2018-10-09T06:27:05.413Z,86.80
2018-10-09T06:29:34.014Z,86.70
2018-10-09T06:32:02.882Z,86.50
2018-10-09T06:34:31.756Z,86.70
2018-10-09T06:37:00.315Z,86.70
2018-10-09T06:39:29.203Z,86.80
2018-10-09T06:41:58.014Z,86.90
2018-10-09T06:44:26.726Z,86.70
2018-10-09T06:46:57.341Z,86.30
2018-10-09T06:49:25.890Z,86.30
2018-10-09T06:51:54.831Z,86.90
2018-10-09T06:54:23.680Z,86.70
2018-10-09T06:56:52.348Z,87.00
2018-10-09T06:59:20.851Z,87.60
2018-10-09T07:01:49.515Z,87.30
2018-10-09T07:04:18.234Z,87.60
2018-10-09T07:06:47.125Z,87.80
2018-10-09T07:09:15.824Z,87.20
2018-10-09T07:11:44.724Z,87.00
2018-10-09T07:14:13.579Z,86.70
2018-10-09T07:16:42.248Z,87.10
2018-10-09T07:19:10.928Z,87.50
2018-10-09T07:21:39.453Z,86.80
2018-10-09T07:24:08.130Z,87.00
2018-10-09T07:26:36.997Z,87.30
2018-10-09T07:29:05.876Z,87.30
2018-10-09T07:31:34.236Z,87.70
2018-10-09T07:34:02.842Z,87.90
2018-10-09T07:36:31.572Z,87.70
2018-10-09T07:39:00.207Z,87.40
2018-10-09T07:41:29.015Z,87.40
2018-10-09T07:43:57.890Z,87.40
2018-10-09T07:46:29.088Z,87.50
2018-10-09T07:49:03.741Z,87.40
2018-10-09T07:51:32.649Z,87.50
2018-10-09T07:54:01.315Z,87.40
2018-10-09T07:56:30.040Z,87.60
2018-10-09T07:58:58.947Z,87.70
2018-10-09T08:01:27.811Z,87.90
2018-10-09T08:03:56.649Z,88.60
2018-10-09T08:06:25.371Z,88.30
2018-10-09T08:08:54.040Z,88.20
2018-10-09T08:11:22.780Z,88.30
2018-10-09T08:13:51.412Z,88.30
2018-10-09T08:16:20.195Z,88.30
2018-10-09T08:18:49.049Z,87.40
2018-10-09T08:21:17.888Z,86.60
2018-10-09T08:23:46.734Z,86.40
2018-10-09T08:26:15.536Z,86.30
2018-10-09T08:28:44.355Z,85.80
2018-10-09T08:31:13.031Z,85.00
2018-10-09T08:33:41.542Z,83.50
2018-10-09T08:36:10.420Z,82.50
2018-10-09T08:38:39.320Z,83.50
2018-10-09T08:41:08.105Z,82.10
2018-10-09T08:43:38.937Z,81.10
2018-10-09T08:46:08.050Z,81.20
2018-10-09T08:48:36.670Z,79.00
2018-10-09T08:51:05.808Z,80.00
2018-10-09T08:53:34.625Z,78.80
2018-10-09T08:56:03.386Z,77.40
2018-10-09T08:58:31.854Z,76.70
2018-10-09T09:01:00.794Z,75.50
2018-10-09T09:03:29.713Z,75.60
2018-10-09T09:05:58.324Z,74.70
2018-10-09T09:08:26.840Z,72.90
2018-10-09T09:10:55.663Z,73.00
2018-10-09T09:20:09.725Z,70.50
2018-10-09T09:22:38.820Z,69.00
2018-10-09T09:25:07.711Z,68.40
2018-10-09T09:27:36.419Z,67.00
2018-10-09T09:30:05.602Z,66.20
2018-10-09T09:32:34.357Z,66.20
2018-10-09T09:35:02.883Z,63.40
2018-10-09T09:37:31.549Z,62.90
2018-10-09T09:40:00.490Z,61.80
2018-10-09T09:42:29.324Z,60.40
2018-10-09T09:44:58.204Z,61.00
2018-10-09T09:47:27.109Z,59.50
2018-10-09T09:49:56.018Z,58.00
2018-10-09T09:52:28.190Z,57.30
2018-10-09T09:54:56.867Z,57.50
2018-10-09T09:57:25.742Z,56.00
2018-10-09T09:59:54.631Z,54.20
2018-10-09T10:02:23.562Z,53.40
2018-10-09T10:04:52.118Z,53.40
2018-10-09T10:07:20.650Z,52.90
2018-10-09T10:09:49.585Z,51.70
2018-10-09T10:12:18.507Z,52.00
2018-10-09T10:14:47.395Z,50.50
2018-10-09T10:17:16.016Z,52.00
2018-10-09T10:19:45.261Z,51.50
2018-10-09T10:22:13.998Z,50.50
2018-10-09T10:24:43.243Z,49.80
2018-10-09T10:27:12.011Z,50.30
2018-10-09T10:29:40.917Z,49.90
2018-10-09T10:32:09.807Z,49.60
2018-10-09T10:34:38.726Z,48.50
2018-10-09T10:37:07.633Z,48.10
2018-10-09T10:39:36.714Z,48.60
2018-10-09T10:42:05.401Z,49.20
2018-10-09T10:47:10.961Z,50.20
2018-10-09T10:49:39.770Z,48.90
2018-10-09T10:52:08.655Z,47.10
2018-10-09T10:54:37.575Z,47.60
2018-10-09T10:57:06.429Z,47.90
2018-10-09T10:59:35.090Z,48.00
2018-10-09T11:02:03.943Z,48.90
2018-10-09T11:04:32.702Z,47.70
2018-10-09T11:07:01.588Z,47.20
2018-10-09T11:09:30.316Z,47.30
2018-10-09T11:11:58.750Z,47.20
2018-10-09T11:14:27.665Z,46.80
2018-10-09T11:16:56.339Z,47.00
2018-10-09T11:22:17.284Z,46.60
2018-10-09T11:24:46.142Z,46.10
2018-10-09T11:27:14.851Z,48.30
2018-10-09T11:29:43.515Z,47.50
2018-10-09T11:32:11.974Z,47.20
2018-10-09T11:34:40.470Z,48.30
2018-10-09T11:37:09.174Z,47.60
2018-10-09T11:39:37.846Z,46.30
2018-10-09T11:42:06.526Z,46.40
2018-10-09T11:44:35.026Z,45.60
2018-10-09T11:47:03.559Z,47.50
2018-10-09T11:49:32.165Z,47.50
2018-10-09T11:52:00.879Z,46.30
2018-10-09T11:54:29.535Z,48.50
2018-10-09T11:56:58.427Z,49.10
2018-10-09T11:59:27.125Z,48.20
2018-10-09T12:01:56.098Z,49.70
2018-10-09T12:04:24.888Z,48.30
2018-10-09T12:06:53.486Z,48.70
2018-10-09T12:09:22.439Z,48.40
2018-10-09T12:11:50.952Z,48.00
2018-10-09T12:14:19.847Z,47.80
2018-10-09T12:16:48.714Z,48.70
2018-10-09T12:19:17.191Z,48.90
2018-10-09T12:21:45.917Z,49.10
2018-10-09T12:24:14.817Z,50.00
2018-10-09T12:26:43.673Z,50.60
2018-10-09T12:29:12.596Z,49.40
2018-10-09T12:31:41.485Z,49.20
2018-10-09T12:34:10.140Z,49.00
2018-10-09T12:36:39.056Z,48.90
2018-10-09T12:39:11.963Z,48.90
2018-10-09T12:41:41.072Z,47.80
2018-10-09T12:44:09.616Z,49.40
2018-10-09T12:46:38.841Z,49.50
2018-10-09T12:49:07.627Z,49.80
2018-10-09T12:51:36.081Z,48.80
2018-10-09T12:54:04.969Z,50.30
2018-10-09T12:56:33.829Z,50.40
2018-10-09T12:59:02.644Z,52.60
2018-10-09T13:01:31.185Z,50.90
2018-10-09T13:03:59.977Z,50.30
2018-10-09T13:06:28.773Z,50.10
2018-10-09T13:08:57.301Z,50.50
2018-10-09T13:11:25.937Z,50.60
2018-10-09T13:13:54.714Z,50.70
2018-10-09T13:16:23.391Z,51.80
2018-10-09T13:18:52.239Z,51.60
2018-10-09T13:21:21.050Z,52.40
2018-10-09T13:23:49.544Z,51.50
2018-10-09T13:26:18.300Z,53.00
2018-10-09T13:28:46.966Z,51.80
2018-10-09T13:31:15.662Z,52.30
2018-10-09T13:33:44.323Z,53.60
2018-10-09T13:36:13.044Z,52.10
2018-10-09T13:38:41.682Z,52.90
2018-10-09T13:41:10.452Z,53.90
2018-10-09T13:43:39.278Z,53.60
2018-10-09T13:46:08.667Z,52.70
2018-10-09T13:48:37.465Z,53.70
2018-10-09T13:51:06.790Z,53.90
2018-10-09T13:53:35.814Z,54.00
2018-10-09T13:56:04.556Z,54.00
2018-10-09T13:58:33.422Z,54.00
2018-10-09T14:01:01.876Z,54.50
2018-10-09T14:03:30.983Z,55.70
2018-10-09T14:05:59.503Z,54.70
2018-10-09T14:08:28.378Z,54.80
2018-10-09T14:10:57.092Z,55.40
2018-10-09T14:13:25.701Z,54.60
2018-10-09T14:15:54.225Z,55.20
2018-10-09T14:18:22.706Z,56.10
2018-10-09T14:20:51.186Z,55.40
2018-10-09T14:23:19.862Z,55.50
2018-10-09T14:26:10.252Z,55.10
2018-10-09T14:29:03.367Z,54.60
2018-10-09T14:31:41.952Z,55.90
2018-10-09T14:34:35.056Z,56.00
2018-10-09T14:37:33.824Z,57.40
2018-10-09T14:40:06.898Z,56.10
2018-10-09T14:42:55.322Z,56.40
2018-10-09T14:45:53.216Z,56.80
2018-10-09T14:48:26.379Z,57.00
2018-10-09T14:50:54.649Z,56.40
2018-10-09T14:53:23.351Z,57.50
2018-10-09T14:55:52.266Z,56.30
2018-10-09T14:58:20.914Z,57.00
2018-10-09T15:00:50.104Z,56.90
2018-10-09T15:03:18.974Z,57.80
2018-10-09T15:05:47.802Z,57.50
2018-10-09T15:08:17.296Z,57.20
2018-10-09T15:10:46.245Z,57.80
2018-10-09T15:13:15.218Z,57.30
2018-10-09T15:15:44.020Z,57.60
2018-10-09T15:18:14.269Z,57.40
2018-10-09T15:20:43.467Z,58.20
2018-10-09T15:23:12.114Z,58.50
2018-10-09T15:25:42.385Z,58.60
2018-10-09T15:28:10.886Z,57.90
2018-10-09T15:30:40.463Z,58.60
2018-10-09T15:33:09.311Z,58.80
2018-10-09T15:35:39.815Z,58.20
2018-10-09T15:38:08.713Z,59.00
2018-10-09T15:40:37.590Z,58.80
2018-10-09T15:43:06.691Z,58.80
2018-10-09T15:45:37.457Z,58.30
2018-10-09T15:48:06.410Z,58.60
2018-10-09T15:50:35.211Z,59.30
2018-10-09T15:53:04.325Z,59.50
2018-10-09T15:55:33.711Z,59.10
2018-10-09T15:58:03.151Z,60.80
2018-10-09T16:00:37.456Z,60.40
2018-10-09T16:03:07.173Z,60.20
2018-10-09T16:05:36.940Z,60.60
2018-10-09T16:08:06.623Z,60.40
2018-10-09T16:10:35.994Z,60.80
2018-10-09T16:13:06.882Z,61.10
2018-10-09T16:15:36.155Z,60.50
2018-10-09T16:18:04.880Z,61.30
2018-10-09T16:20:33.821Z,61.30
2018-10-09T16:23:02.638Z,61.30
2018-10-09T16:25:31.274Z,61.30
2018-10-09T16:27:59.825Z,61.70
2018-10-09T16:30:28.785Z,62.00
2018-10-09T16:32:57.393Z,62.30
2018-10-09T16:35:26.094Z,62.60
2018-10-09T16:37:56.607Z,62.50
2018-10-09T16:40:26.772Z,62.80
2018-10-09T16:42:55.628Z,63.20
2018-10-09T16:45:24.496Z,63.70
2018-10-09T16:47:53.437Z,63.60
2018-10-09T16:50:22.992Z,64.30
2018-10-09T16:52:51.844Z,64.20
2018-10-09T16:55:20.503Z,64.60
2018-10-09T16:57:49.354Z,65.10
2018-10-09T17:00:21.089Z,65.30
2018-10-09T17:02:50.413Z,66.00
2018-10-09T17:05:19.077Z,66.30
2018-10-09T17:07:50.891Z,66.60
2018-10-09T17:10:20.769Z,67.80
2018-10-09T17:12:52.640Z,68.30
2018-10-09T17:15:23.223Z,68.30
2018-10-09T17:17:53.497Z,69.40
2018-10-09T17:20:26.220Z,69.40
2018-10-09T17:22:55.318Z,70.20
2018-10-09T17:25:25.811Z,70.60
2018-10-09T17:27:55.744Z,70.90
2018-10-09T17:30:24.581Z,70.90
2018-10-09T17:32:57.598Z,71.30
2018-10-09T17:35:29.296Z,72.00
2018-10-09T17:38:01.253Z,72.30
2018-10-09T17:40:59.808Z,72.60
2018-10-09T17:44:04.708Z,72.60
2018-10-09T17:47:08.800Z,73.30
2018-10-09T17:49:42.743Z,73.70
2018-10-09T17:52:12.094Z,73.90
2018-10-09T17:55:04.110Z,74.30
2018-10-09T17:57:57.847Z,74.50
2018-10-09T18:00:56.857Z,75.10
2018-10-09T18:03:52.910Z,75.00
2018-10-09T18:06:48.303Z,75.40
2018-10-09T18:09:22.632Z,75.50
2018-10-09T18:11:52.452Z,75.60
2018-10-09T18:14:52.658Z,76.20
2018-10-09T18:18:05.238Z,76.40
2018-10-09T18:20:35.756Z,76.40
2018-10-09T18:23:27.392Z,77.00
2018-10-09T18:26:21.111Z,77.60
2018-10-09T18:29:13.397Z,77.50
2018-10-09T18:32:12.246Z,77.80
2018-10-09T18:34:53.105Z,78.30
2018-10-09T18:37:31.176Z,78.70
2018-10-09T18:40:18.093Z,79.00
2018-10-09T18:43:07.998Z,79.00
2018-10-09T18:46:09.502Z,79.20
2018-10-09T18:48:42.790Z,79.30
2018-10-09T18:51:11.547Z,79.70
2018-10-09T18:53:45.072Z,79.90
2018-10-09T18:56:17.164Z,80.70
2018-10-09T18:58:49.749Z,80.10
2018-10-09T19:01:22.598Z,80.00
2018-10-09T19:04:30.145Z,80.10
2018-10-09T19:07:36.853Z,80.50
2018-10-09T19:10:18.083Z,81.00
2018-10-09T19:12:49.693Z,81.30
2018-10-09T19:15:19.912Z,81.50
2018-10-09T19:17:52.363Z,81.70
2018-10-09T19:20:21.725Z,81.70
2018-10-09T19:23:14.659Z,81.90
2018-10-09T19:25:54.612Z,81.80
2018-10-09T19:28:31.899Z,82.10
2018-10-09T19:31:01.836Z,81.90
2018-10-09T19:33:32.460Z,82.20
2018-10-09T19:36:06.934Z,82.10
2018-10-09T19:38:58.719Z,82.50
2018-10-09T19:41:29.140Z,82.80
2018-10-09T19:44:01.087Z,82.60
2018-10-09T19:46:30.810Z,82.80
2018-10-09T19:49:00.204Z,82.80
2018-10-09T19:51:29.040Z,83.10
2018-10-09T19:53:57.921Z,83.00
2018-10-09T19:56:28.110Z,82.90
2018-10-09T19:58:58.625Z,83.30
2018-10-09T20:01:27.290Z,83.30
2018-10-09T20:03:56.319Z,83.40
2018-10-09T20:06:28.539Z,83.60
2018-10-09T20:08:59.411Z,83.60
2018-10-09T20:11:28.652Z,83.90
2018-10-09T20:13:57.418Z,84.00
2018-10-09T20:16:25.955Z,83.80
2018-10-09T20:18:55.438Z,84.00
2018-10-09T20:21:23.938Z,84.20
2018-10-09T20:23:52.563Z,84.00
2018-10-09T20:26:21.470Z,84.30
2018-10-09T20:28:51.105Z,84.50
2018-10-09T20:31:19.878Z,84.70
2018-10-09T20:33:49.574Z,84.70
2018-10-09T20:36:23.112Z,84.50
2018-10-09T20:38:51.659Z,84.40
2018-10-09T20:41:20.485Z,84.40
2018-10-09T20:43:49.255Z,84.70
2018-10-09T20:46:18.109Z,84.60
2018-10-09T20:48:46.818Z,84.50
2018-10-09T20:51:16.308Z,84.60
2018-10-09T20:53:44.954Z,84.30
2018-10-09T20:56:15.314Z,84.30
2018-10-09T20:58:44.592Z,84.30
2018-10-09T21:01:14.110Z,84.20
2018-10-09T21:03:42.941Z,84.20
2018-10-09T21:06:11.754Z,84.20
2018-10-09T21:08:40.640Z,84.10
2018-10-09T21:11:14.077Z,84.00
2018-10-09T21:13:42.835Z,84.40
2018-10-09T21:16:11.685Z,84.90
2018-10-09T21:18:40.979Z,85.20
2018-10-09T21:21:09.495Z,85.10
2018-10-09T21:23:38.205Z,85.20
2018-10-09T21:26:07.065Z,85.50
2018-10-09T21:28:35.559Z,85.50
2018-10-09T21:31:04.085Z,85.40
2018-10-09T21:33:34.508Z,85.90
2018-10-09T21:36:15.862Z,86.30
2018-10-09T21:39:17.195Z,85.90
2018-10-09T21:41:52.139Z,86.20
2018-10-09T21:44:23.233Z,86.80
2018-10-09T21:46:54.620Z,86.80
2018-10-09T21:49:30.723Z,86.50
2018-10-09T21:51:59.256Z,86.10
2018-10-09T21:54:27.947Z,86.00
2018-10-09T21:56:56.469Z,85.60
2018-10-09T21:59:25.087Z,85.20
2018-10-09T22:01:53.821Z,85.10
2018-10-09T22:04:22.737Z,84.70
2018-10-09T22:06:51.370Z,84.60
2018-10-09T22:09:20.078Z,84.30
2018-10-09T22:11:48.819Z,84.20
2018-10-09T22:14:17.551Z,83.90
2018-10-09T22:16:46.118Z,83.80
2018-10-09T22:19:14.850Z,83.80
2018-10-09T22:21:43.701Z,83.30
2018-10-09T22:24:12.644Z,83.60
2018-10-09T22:26:41.502Z,83.40
2018-10-09T22:29:09.933Z,82.90
2018-10-09T22:31:38.641Z,83.00
2018-10-09T22:34:07.182Z,83.00
2018-10-09T22:36:35.791Z,82.60
2018-10-09T22:39:05.905Z,82.60
2018-10-09T22:41:34.724Z,82.50
2018-10-09T22:44:03.552Z,82.30
2018-10-09T22:46:32.420Z,82.90
2018-10-09T22:49:01.459Z,82.00
2018-10-09T22:51:29.970Z,81.90
2018-10-09T22:53:58.409Z,81.90
2018-10-09T22:56:27.155Z,81.80
2018-10-09T22:58:55.582Z,81.60
2018-10-09T23:01:24.313Z,81.30
2018-10-09T23:03:52.778Z,81.40
2018-10-09T23:06:21.468Z,81.00
2018-10-09T23:08:50.354Z,80.90
2018-10-09T23:11:19.068Z,80.60
2018-10-09T23:13:47.729Z,80.50
2018-10-09T23:16:16.410Z,80.40
2018-10-09T23:18:45.133Z,80.40
2018-10-09T23:21:13.758Z,80.10
2018-10-09T23:23:42.461Z,80.50
2018-10-09T23:26:11.176Z,80.10
2018-10-09T23:28:39.790Z,80.30
2018-10-09T23:31:08.332Z,80.00
2018-10-09T23:33:37.267Z,79.90
2018-10-09T23:36:06.103Z,79.90
2018-10-09T23:38:34.556Z,79.90
2018-10-09T23:41:03.441Z,79.80
2018-10-09T23:43:31.943Z,79.70
2018-10-09T23:46:00.675Z,79.40
2018-10-09T23:48:29.334Z,79.10
2018-10-09T23:50:57.985Z,79.10
2018-10-09T23:53:26.682Z,79.10
2018-10-09T23:55:55.180Z,78.90
2018-10-09T23:58:23.639Z,79.00
